sensor_id;sensor_type;location;lat;lon;timestamp;P1;durP1;ratioP1;P2;durP2;ratioP2
59938;SDS011;45801;51.810;19.444;2023-04-01T00:00:20;15.80;;;10.30;;
59938;SDS011;45801;51.810;19.444;2023-04-01T00:03:07;15.00;;;9.80;;
59938;SDS011;45801;51.810;19.444;2023-04-01T00:05:34;15.10;;;10.80;;
59938;SDS011;45801;51.810;19.444;2023-04-01T00:08:01;15.30;;;10.10;;
59938;SDS011;45801;51.810;19.444;2023-04-01T00:10:27;14.40;;;9.90;;
59938;SDS011;45801;51.810;19.444;2023-04-01T00:12:54;13.60;;;9.00;;
59938;SDS011;45801;51.810;19.444;2023-04-01T00:15:20;13.60;;;8.40;;
59938;SDS011;45801;51.810;19.444;2023-04-01T00:17:47;15.20;;;10.00;;
59938;SDS011;45801;51.810;19.444;2023-04-01T00:20:14;11.50;;;8.80;;
59938;SDS011;45801;51.810;19.444;2023-04-01T00:22:41;14.60;;;9.20;;
59938;SDS011;45801;51.810;19.444;2023-04-01T00:25:07;13.40;;;9.40;;
59938;SDS011;45801;51.810;19.444;2023-04-01T00:27:34;15.20;;;9.50;;
59938;SDS011;45801;51.810;19.444;2023-04-01T00:30:01;15.50;;;10.70;;
59938;SDS011;45801;51.810;19.444;2023-04-01T00:32:28;15.40;;;10.40;;
59938;SDS011;45801;51.810;19.444;2023-04-01T00:34:56;15.50;;;10.80;;
59938;SDS011;45801;51.810;19.444;2023-04-01T00:37:26;15.40;;;10.70;;
59938;SDS011;45801;51.810;19.444;2023-04-01T00:39:53;14.80;;;11.10;;
59938;SDS011;45801;51.810;19.444;2023-04-01T00:42:20;14.20;;;10.30;;
59938;SDS011;45801;51.810;19.444;2023-04-01T00:44:52;14.70;;;10.90;;
59938;SDS011;45801;51.810;19.444;2023-04-01T00:47:19;13.40;;;9.80;;
59938;SDS011;45801;51.810;19.444;2023-04-01T00:49:48;14.60;;;10.40;;
59938;SDS011;45801;51.810;19.444;2023-04-01T00:52:21;14.50;;;10.10;;
59938;SDS011;45801;51.810;19.444;2023-04-01T00:54:54;16.30;;;11.70;;
59938;SDS011;45801;51.810;19.444;2023-04-01T00:57:29;17.10;;;12.20;;
59938;SDS011;45801;51.810;19.444;2023-04-01T00:59:58;16.30;;;11.40;;
59938;SDS011;45801;51.810;19.444;2023-04-01T01:02:25;17.00;;;11.30;;
59938;SDS011;45801;51.810;19.444;2023-04-01T01:04:52;14.80;;;10.60;;
59938;SDS011;45801;51.810;19.444;2023-04-01T01:07:31;15.10;;;11.50;;
59938;SDS011;45801;51.810;19.444;2023-04-01T01:10:18;14.40;;;11.50;;
59938;SDS011;45801;51.810;19.444;2023-04-01T01:16:17;15.10;;;11.60;;
59938;SDS011;45801;51.810;19.444;2023-04-01T01:19:40;16.70;;;11.50;;
59938;SDS011;45801;51.810;19.444;2023-04-01T01:27:09;15.80;;;11.50;;
59938;SDS011;45801;51.810;19.444;2023-04-01T01:30:00;16.60;;;12.40;;
59938;SDS011;45801;51.810;19.444;2023-04-01T01:35:20;16.60;;;11.70;;
59938;SDS011;45801;51.810;19.444;2023-04-01T01:37:56;16.40;;;12.40;;
59938;SDS011;45801;51.810;19.444;2023-04-01T01:40:26;15.70;;;11.40;;
59938;SDS011;45801;51.810;19.444;2023-04-01T01:42:56;16.30;;;12.00;;
59938;SDS011;45801;51.810;19.444;2023-04-01T01:45:26;17.90;;;11.30;;
59938;SDS011;45801;51.810;19.444;2023-04-01T01:47:54;14.70;;;10.90;;
59938;SDS011;45801;51.810;19.444;2023-04-01T01:50:24;16.80;;;13.10;;
59938;SDS011;45801;51.810;19.444;2023-04-01T01:53:04;14.60;;;11.30;;
59938;SDS011;45801;51.810;19.444;2023-04-01T01:55:34;15.40;;;11.90;;
59938;SDS011;45801;51.810;19.444;2023-04-01T01:58:05;16.50;;;11.40;;
59938;SDS011;45801;51.810;19.444;2023-04-01T02:00:54;17.10;;;12.50;;
59938;SDS011;45801;51.810;19.444;2023-04-01T02:03:25;14.80;;;11.90;;
59938;SDS011;45801;51.810;19.444;2023-04-01T02:05:56;17.10;;;12.80;;
59938;SDS011;45801;51.810;19.444;2023-04-01T02:08:35;14.90;;;11.00;;
59938;SDS011;45801;51.810;19.444;2023-04-01T02:11:09;18.10;;;13.70;;
59938;SDS011;45801;51.810;19.444;2023-04-01T02:13:47;17.60;;;13.50;;
59938;SDS011;45801;51.810;19.444;2023-04-01T02:16:33;18.90;;;13.70;;
59938;SDS011;45801;51.810;19.444;2023-04-01T02:19:02;18.90;;;14.30;;
59938;SDS011;45801;51.810;19.444;2023-04-01T02:21:33;20.90;;;15.20;;
59938;SDS011;45801;51.810;19.444;2023-04-01T02:24:02;20.70;;;15.80;;
59938;SDS011;45801;51.810;19.444;2023-04-01T02:26:32;20.50;;;15.90;;
59938;SDS011;45801;51.810;19.444;2023-04-01T02:28:58;21.10;;;16.10;;
59938;SDS011;45801;51.810;19.444;2023-04-01T02:31:27;21.70;;;16.60;;
59938;SDS011;45801;51.810;19.444;2023-04-01T02:33:54;20.10;;;14.90;;
59938;SDS011;45801;51.810;19.444;2023-04-01T02:36:21;21.60;;;16.60;;
59938;SDS011;45801;51.810;19.444;2023-04-01T02:38:47;21.70;;;16.60;;
59938;SDS011;45801;51.810;19.444;2023-04-01T02:41:16;21.10;;;16.40;;
59938;SDS011;45801;51.810;19.444;2023-04-01T02:43:42;24.10;;;16.00;;
59938;SDS011;45801;51.810;19.444;2023-04-01T02:46:09;19.00;;;14.10;;
59938;SDS011;45801;51.810;19.444;2023-04-01T02:48:35;24.20;;;15.40;;
59938;SDS011;45801;51.810;19.444;2023-04-01T02:51:02;18.30;;;13.10;;
59938;SDS011;45801;51.810;19.444;2023-04-01T02:53:29;19.40;;;14.80;;
59938;SDS011;45801;51.810;19.444;2023-04-01T02:55:56;17.40;;;12.90;;
59938;SDS011;45801;51.810;19.444;2023-04-01T02:58:22;17.50;;;12.60;;
59938;SDS011;45801;51.810;19.444;2023-04-01T03:00:49;18.30;;;12.30;;
59938;SDS011;45801;51.810;19.444;2023-04-01T03:03:16;17.30;;;12.70;;
59938;SDS011;45801;51.810;19.444;2023-04-01T03:05:42;17.20;;;12.90;;
59938;SDS011;45801;51.810;19.444;2023-04-01T03:08:08;17.90;;;12.90;;
59938;SDS011;45801;51.810;19.444;2023-04-01T03:10:37;16.20;;;12.30;;
59938;SDS011;45801;51.810;19.444;2023-04-01T03:13:04;15.50;;;11.70;;
59938;SDS011;45801;51.810;19.444;2023-04-01T03:15:30;16.10;;;11.00;;
59938;SDS011;45801;51.810;19.444;2023-04-01T03:17:57;14.90;;;11.00;;
59938;SDS011;45801;51.810;19.444;2023-04-01T03:20:24;16.20;;;10.30;;
59938;SDS011;45801;51.810;19.444;2023-04-01T03:22:50;15.80;;;10.50;;
59938;SDS011;45801;51.810;19.444;2023-04-01T03:25:17;13.80;;;9.00;;
59938;SDS011;45801;51.810;19.444;2023-04-01T03:27:44;15.40;;;10.00;;
59938;SDS011;45801;51.810;19.444;2023-04-01T03:30:10;15.40;;;10.00;;
59938;SDS011;45801;51.810;19.444;2023-04-01T03:32:37;13.70;;;9.80;;
59938;SDS011;45801;51.810;19.444;2023-04-01T03:35:04;14.60;;;9.70;;
59938;SDS011;45801;51.810;19.444;2023-04-01T03:37:31;14.50;;;9.50;;
59938;SDS011;45801;51.810;19.444;2023-04-01T03:39:58;13.50;;;8.60;;
59938;SDS011;45801;51.810;19.444;2023-04-01T03:42:24;12.20;;;8.40;;
59938;SDS011;45801;51.810;19.444;2023-04-01T03:44:51;13.30;;;8.10;;
59938;SDS011;45801;51.810;19.444;2023-04-01T03:47:18;13.60;;;8.30;;
59938;SDS011;45801;51.810;19.444;2023-04-01T03:49:44;11.70;;;7.80;;
59938;SDS011;45801;51.810;19.444;2023-04-01T03:52:11;12.70;;;7.80;;
59938;SDS011;45801;51.810;19.444;2023-04-01T03:54:37;12.10;;;7.50;;
59938;SDS011;45801;51.810;19.444;2023-04-01T03:57:04;14.20;;;8.60;;
59938;SDS011;45801;51.810;19.444;2023-04-01T03:59:31;14.60;;;9.00;;
59938;SDS011;45801;51.810;19.444;2023-04-01T04:01:58;14.70;;;9.10;;
59938;SDS011;45801;51.810;19.444;2023-04-01T04:04:25;13.20;;;8.60;;
59938;SDS011;45801;51.810;19.444;2023-04-01T04:06:53;12.50;;;8.00;;
59938;SDS011;45801;51.810;19.444;2023-04-01T04:09:20;12.80;;;7.90;;
59938;SDS011;45801;51.810;19.444;2023-04-01T04:11:47;12.30;;;8.00;;
59938;SDS011;45801;51.810;19.444;2023-04-01T04:14:14;12.80;;;8.40;;
59938;SDS011;45801;51.810;19.444;2023-04-01T04:16:40;14.80;;;8.10;;
59938;SDS011;45801;51.810;19.444;2023-04-01T04:19:07;12.70;;;7.30;;
59938;SDS011;45801;51.810;19.444;2023-04-01T04:21:33;11.50;;;6.80;;
59938;SDS011;45801;51.810;19.444;2023-04-01T04:24:00;12.80;;;7.10;;
59938;SDS011;45801;51.810;19.444;2023-04-01T04:26:28;12.40;;;7.70;;
59938;SDS011;45801;51.810;19.444;2023-04-01T04:28:54;12.10;;;7.10;;
59938;SDS011;45801;51.810;19.444;2023-04-01T04:31:22;13.40;;;8.10;;
59938;SDS011;45801;51.810;19.444;2023-04-01T04:33:50;14.80;;;7.30;;
59938;SDS011;45801;51.810;19.444;2023-04-01T04:36:18;14.00;;;8.40;;
59938;SDS011;45801;51.810;19.444;2023-04-01T04:38:46;12.70;;;7.50;;
59938;SDS011;45801;51.810;19.444;2023-04-01T04:41:14;13.70;;;8.30;;
59938;SDS011;45801;51.810;19.444;2023-04-01T04:43:48;11.60;;;7.90;;
59938;SDS011;45801;51.810;19.444;2023-04-01T04:46:17;15.60;;;8.00;;
59938;SDS011;45801;51.810;19.444;2023-04-01T04:48:44;15.10;;;7.80;;
59938;SDS011;45801;51.810;19.444;2023-04-01T04:51:14;12.90;;;8.50;;
59938;SDS011;45801;51.810;19.444;2023-04-01T04:53:44;12.80;;;7.20;;
59938;SDS011;45801;51.810;19.444;2023-04-01T04:56:11;13.90;;;8.30;;
59938;SDS011;45801;51.810;19.444;2023-04-01T04:58:38;11.70;;;7.90;;
59938;SDS011;45801;51.810;19.444;2023-04-01T05:01:09;11.80;;;8.00;;
59938;SDS011;45801;51.810;19.444;2023-04-01T05:03:37;13.40;;;7.60;;
59938;SDS011;45801;51.810;19.444;2023-04-01T05:06:05;13.00;;;8.00;;
59938;SDS011;45801;51.810;19.444;2023-04-01T05:08:32;13.20;;;8.30;;
59938;SDS011;45801;51.810;19.444;2023-04-01T05:11:00;13.90;;;8.20;;
59938;SDS011;45801;51.810;19.444;2023-04-01T05:13:28;12.20;;;7.80;;
59938;SDS011;45801;51.810;19.444;2023-04-01T05:15:55;11.80;;;7.60;;
59938;SDS011;45801;51.810;19.444;2023-04-01T05:18:21;12.60;;;7.60;;
59938;SDS011;45801;51.810;19.444;2023-04-01T05:20:49;11.50;;;7.00;;
59938;SDS011;45801;51.810;19.444;2023-04-01T05:23:18;11.50;;;7.20;;
59938;SDS011;45801;51.810;19.444;2023-04-01T05:25:49;14.20;;;7.00;;
59938;SDS011;45801;51.810;19.444;2023-04-01T05:28:19;13.80;;;7.80;;
59938;SDS011;45801;51.810;19.444;2023-04-01T05:30:46;12.90;;;7.80;;
59938;SDS011;45801;51.810;19.444;2023-04-01T05:33:12;12.20;;;6.40;;
59938;SDS011;45801;51.810;19.444;2023-04-01T05:35:39;12.50;;;7.70;;
59938;SDS011;45801;51.810;19.444;2023-04-01T05:38:06;15.20;;;7.50;;
59938;SDS011;45801;51.810;19.444;2023-04-01T05:40:33;13.20;;;7.70;;
59938;SDS011;45801;51.810;19.444;2023-04-01T05:42:59;15.20;;;7.50;;
59938;SDS011;45801;51.810;19.444;2023-04-01T05:45:26;12.60;;;7.80;;
59938;SDS011;45801;51.810;19.444;2023-04-01T05:47:53;10.70;;;6.70;;
59938;SDS011;45801;51.810;19.444;2023-04-01T05:50:20;12.80;;;7.50;;
59938;SDS011;45801;51.810;19.444;2023-04-01T05:52:46;10.60;;;6.90;;
59938;SDS011;45801;51.810;19.444;2023-04-01T05:55:13;11.80;;;7.50;;
59938;SDS011;45801;51.810;19.444;2023-04-01T05:57:39;11.00;;;6.20;;
59938;SDS011;45801;51.810;19.444;2023-04-01T06:00:06;12.80;;;7.10;;
59938;SDS011;45801;51.810;19.444;2023-04-01T06:02:33;11.10;;;7.40;;
59938;SDS011;45801;51.810;19.444;2023-04-01T06:05:09;13.10;;;7.90;;
59938;SDS011;45801;51.810;19.444;2023-04-01T06:07:40;11.90;;;7.00;;
59938;SDS011;45801;51.810;19.444;2023-04-01T06:10:15;11.60;;;7.80;;
59938;SDS011;45801;51.810;19.444;2023-04-01T06:21:28;13.30;;;7.80;;
59938;SDS011;45801;51.810;19.444;2023-04-01T06:44:21;12.20;;;7.60;;
59938;SDS011;45801;51.810;19.444;2023-04-01T06:52:41;12.60;;;8.40;;
59938;SDS011;45801;51.810;19.444;2023-04-01T06:55:23;12.30;;;8.10;;
59938;SDS011;45801;51.810;19.444;2023-04-01T06:58:02;12.40;;;7.50;;
59938;SDS011;45801;51.810;19.444;2023-04-01T07:00:36;12.80;;;8.10;;
59938;SDS011;45801;51.810;19.444;2023-04-01T07:05:48;12.80;;;8.50;;
59938;SDS011;45801;51.810;19.444;2023-04-01T07:08:20;12.70;;;7.70;;
59938;SDS011;45801;51.810;19.444;2023-04-01T07:10:53;12.40;;;8.50;;
59938;SDS011;45801;51.810;19.444;2023-04-01T07:13:22;10.60;;;7.50;;
59938;SDS011;45801;51.810;19.444;2023-04-01T07:15:56;10.40;;;6.60;;
59938;SDS011;45801;51.810;19.444;2023-04-01T07:18:37;11.50;;;7.80;;
59938;SDS011;45801;51.810;19.444;2023-04-01T07:21:29;13.00;;;7.10;;
59938;SDS011;45801;51.810;19.444;2023-04-01T07:24:45;13.50;;;8.20;;
59938;SDS011;45801;51.810;19.444;2023-04-01T07:27:04;12.30;;;8.60;;
59938;SDS011;45801;51.810;19.444;2023-04-01T07:29:35;12.10;;;7.90;;
59938;SDS011;45801;51.810;19.444;2023-04-01T07:32:13;12.70;;;8.60;;
59938;SDS011;45801;51.810;19.444;2023-04-01T07:43:22;11.80;;;7.40;;
59938;SDS011;45801;51.810;19.444;2023-04-01T07:49:11;14.10;;;9.60;;
59938;SDS011;45801;51.810;19.444;2023-04-01T07:51:48;14.40;;;8.80;;
59938;SDS011;45801;51.810;19.444;2023-04-01T07:54:32;11.50;;;7.00;;
59938;SDS011;45801;51.810;19.444;2023-04-01T07:57:15;11.90;;;8.00;;
59938;SDS011;45801;51.810;19.444;2023-04-01T08:05:23;10.80;;;7.10;;
59938;SDS011;45801;51.810;19.444;2023-04-01T08:11:11;12.50;;;7.00;;
59938;SDS011;45801;51.810;19.444;2023-04-01T08:14:07;11.60;;;7.00;;
59938;SDS011;45801;51.810;19.444;2023-04-01T08:19:21;10.40;;;6.30;;
59938;SDS011;45801;51.810;19.444;2023-04-01T08:21:58;10.00;;;6.50;;
59938;SDS011;45801;51.810;19.444;2023-04-01T08:27:05;12.20;;;8.40;;
59938;SDS011;45801;51.810;19.444;2023-04-01T08:29:52;13.10;;;7.90;;
59938;SDS011;45801;51.810;19.444;2023-04-01T08:32:42;12.60;;;8.30;;
59938;SDS011;45801;51.810;19.444;2023-04-01T08:37:41;13.50;;;8.20;;
59938;SDS011;45801;51.810;19.444;2023-04-01T08:49:04;11.00;;;7.20;;
59938;SDS011;45801;51.810;19.444;2023-04-01T08:54:40;11.10;;;6.80;;
59938;SDS011;45801;51.810;19.444;2023-04-01T08:57:38;11.00;;;6.40;;
59938;SDS011;45801;51.810;19.444;2023-04-01T09:00:25;11.10;;;7.20;;
59938;SDS011;45801;51.810;19.444;2023-04-01T09:05:47;9.20;;;6.10;;
59938;SDS011;45801;51.810;19.444;2023-04-01T09:23:00;9.10;;;5.60;;
59938;SDS011;45801;51.810;19.444;2023-04-01T09:28:15;7.90;;;4.80;;
59938;SDS011;45801;51.810;19.444;2023-04-01T09:38:50;8.90;;;5.50;;
59938;SDS011;45801;51.810;19.444;2023-04-01T09:41:35;8.70;;;5.20;;
59938;SDS011;45801;51.810;19.444;2023-04-01T10:07:22;8.10;;;4.30;;
59938;SDS011;45801;51.810;19.444;2023-04-01T10:10:29;8.70;;;5.20;;
59938;SDS011;45801;51.810;19.444;2023-04-01T10:16:32;8.50;;;5.40;;
59938;SDS011;45801;51.810;19.444;2023-04-01T10:41:59;10.90;;;6.50;;
59938;SDS011;45801;51.810;19.444;2023-04-01T10:47:32;9.90;;;6.60;;
59938;SDS011;45801;51.810;19.444;2023-04-01T11:04:47;12.30;;;8.20;;
59938;SDS011;45801;51.810;19.444;2023-04-01T11:24:29;7.90;;;4.10;;
59938;SDS011;45801;51.810;19.444;2023-04-01T11:35:26;10.30;;;6.10;;
59938;SDS011;45801;51.810;19.444;2023-04-01T11:41:13;11.10;;;5.50;;
59938;SDS011;45801;51.810;19.444;2023-04-01T12:10:46;5.90;;;3.30;;
59938;SDS011;45801;51.810;19.444;2023-04-01T12:18:47;7.20;;;3.40;;
59938;SDS011;45801;51.810;19.444;2023-04-01T12:35:39;7.50;;;4.10;;
59938;SDS011;45801;51.810;19.444;2023-04-01T12:49:50;8.40;;;4.10;;
59938;SDS011;45801;51.810;19.444;2023-04-01T12:52:30;8.70;;;5.40;;
59938;SDS011;45801;51.810;19.444;2023-04-01T13:00:56;9.80;;;6.00;;
59938;SDS011;45801;51.810;19.444;2023-04-01T13:03:43;9.40;;;5.60;;
59938;SDS011;45801;51.810;19.444;2023-04-01T13:09:19;9.00;;;5.30;;
59938;SDS011;45801;51.810;19.444;2023-04-01T13:12:15;9.10;;;5.20;;
59938;SDS011;45801;51.810;19.444;2023-04-01T13:15:17;10.30;;;6.40;;
59938;SDS011;45801;51.810;19.444;2023-04-01T13:35:41;14.70;;;8.70;;
59938;SDS011;45801;51.810;19.444;2023-04-01T13:41:33;14.10;;;9.30;;
59938;SDS011;45801;51.810;19.444;2023-04-01T13:52:50;14.10;;;9.40;;
59938;SDS011;45801;51.810;19.444;2023-04-01T13:55:46;13.90;;;8.50;;
59938;SDS011;45801;51.810;19.444;2023-04-01T13:58:23;12.30;;;8.20;;
59938;SDS011;45801;51.810;19.444;2023-04-01T14:01:19;12.80;;;8.30;;
59938;SDS011;45801;51.810;19.444;2023-04-01T14:09:53;12.50;;;7.50;;
59938;SDS011;45801;51.810;19.444;2023-04-01T14:25:56;13.10;;;8.20;;
59938;SDS011;45801;51.810;19.444;2023-04-01T14:46:05;17.10;;;11.30;;
59938;SDS011;45801;51.810;19.444;2023-04-01T14:51:38;18.10;;;12.70;;
59938;SDS011;45801;51.810;19.444;2023-04-01T15:02:09;16.00;;;10.70;;
59938;SDS011;45801;51.810;19.444;2023-04-01T15:07:21;19.30;;;12.90;;
59938;SDS011;45801;51.810;19.444;2023-04-01T15:12:55;18.60;;;12.90;;
59938;SDS011;45801;51.810;19.444;2023-04-01T15:24:56;20.40;;;15.80;;
59938;SDS011;45801;51.810;19.444;2023-04-01T15:27:15;20.00;;;15.10;;
59938;SDS011;45801;51.810;19.444;2023-04-01T15:47:36;19.40;;;14.50;;
59938;SDS011;45801;51.810;19.444;2023-04-01T15:55:56;20.20;;;14.60;;
59938;SDS011;45801;51.810;19.444;2023-04-01T15:58:47;22.80;;;17.70;;
59938;SDS011;45801;51.810;19.444;2023-04-01T16:21:25;21.10;;;15.00;;
59938;SDS011;45801;51.810;19.444;2023-04-01T16:24:04;20.90;;;15.90;;
59938;SDS011;45801;51.810;19.444;2023-04-01T16:29:30;17.70;;;13.90;;
59938;SDS011;45801;51.810;19.444;2023-04-01T16:37:54;21.10;;;14.80;;
59938;SDS011;45801;51.810;19.444;2023-04-01T16:44:26;17.70;;;13.60;;
59938;SDS011;45801;51.810;19.444;2023-04-01T16:46:51;20.50;;;15.50;;
59938;SDS011;45801;51.810;19.444;2023-04-01T16:49:42;18.40;;;13.60;;
59938;SDS011;45801;51.810;19.444;2023-04-01T16:52:17;15.80;;;13.10;;
59938;SDS011;45801;51.810;19.444;2023-04-01T16:55:01;17.00;;;12.80;;
59938;SDS011;45801;51.810;19.444;2023-04-01T17:06:14;19.80;;;14.40;;
59938;SDS011;45801;51.810;19.444;2023-04-01T17:17:34;19.50;;;14.10;;
59938;SDS011;45801;51.810;19.444;2023-04-01T17:22:55;21.70;;;15.10;;
59938;SDS011;45801;51.810;19.444;2023-04-01T17:28:34;19.90;;;14.90;;
59938;SDS011;45801;51.810;19.444;2023-04-01T17:52:37;20.30;;;15.20;;
59938;SDS011;45801;51.810;19.444;2023-04-01T18:06:04;23.40;;;17.00;;
59938;SDS011;45801;51.810;19.444;2023-04-01T18:22:17;24.10;;;17.30;;
59938;SDS011;45801;51.810;19.444;2023-04-01T18:24:58;24.50;;;16.90;;
59938;SDS011;45801;51.810;19.444;2023-04-01T18:27:37;24.70;;;16.90;;
59938;SDS011;45801;51.810;19.444;2023-04-01T18:32:37;24.70;;;17.50;;
59938;SDS011;45801;51.810;19.444;2023-04-01T18:35:17;22.00;;;14.90;;
59938;SDS011;45801;51.810;19.444;2023-04-01T18:46:39;23.60;;;16.50;;
59938;SDS011;45801;51.810;19.444;2023-04-01T18:52:23;23.70;;;18.00;;
59938;SDS011;45801;51.810;19.444;2023-04-01T18:57:47;22.80;;;14.70;;
59938;SDS011;45801;51.810;19.444;2023-04-01T19:00:22;21.90;;;14.10;;
59938;SDS011;45801;51.810;19.444;2023-04-01T19:08:13;20.30;;;15.00;;
59938;SDS011;45801;51.810;19.444;2023-04-01T19:16:34;18.20;;;13.10;;
59938;SDS011;45801;51.810;19.444;2023-04-01T19:30:13;20.50;;;14.30;;
59938;SDS011;45801;51.810;19.444;2023-04-01T19:42:03;20.10;;;14.70;;
59938;SDS011;45801;51.810;19.444;2023-04-01T19:50:27;21.60;;;18.10;;
59938;SDS011;45801;51.810;19.444;2023-04-01T19:53:08;22.90;;;17.10;;
59938;SDS011;45801;51.810;19.444;2023-04-01T19:55:55;21.40;;;14.30;;
59938;SDS011;45801;51.810;19.444;2023-04-01T19:58:45;22.40;;;17.40;;
59938;SDS011;45801;51.810;19.444;2023-04-01T20:01:41;28.10;;;22.50;;
59938;SDS011;45801;51.810;19.444;2023-04-01T20:12:47;25.60;;;19.60;;
59938;SDS011;45801;51.810;19.444;2023-04-01T20:15:21;23.90;;;19.50;;
59938;SDS011;45801;51.810;19.444;2023-04-01T20:17:56;28.30;;;22.00;;
59938;SDS011;45801;51.810;19.444;2023-04-01T20:20:27;31.60;;;25.70;;
59938;SDS011;45801;51.810;19.444;2023-04-01T20:23:05;24.00;;;18.10;;
59938;SDS011;45801;51.810;19.444;2023-04-01T20:25:49;20.60;;;14.70;;
59938;SDS011;45801;51.810;19.444;2023-04-01T20:28:21;18.10;;;11.70;;
59938;SDS011;45801;51.810;19.444;2023-04-01T20:43:07;16.50;;;11.70;;
59938;SDS011;45801;51.810;19.444;2023-04-01T20:45:47;17.50;;;12.80;;
59938;SDS011;45801;51.810;19.444;2023-04-01T20:50:57;19.20;;;13.70;;
59938;SDS011;45801;51.810;19.444;2023-04-01T20:56:52;18.00;;;13.10;;
59938;SDS011;45801;51.810;19.444;2023-04-01T21:02:36;20.00;;;14.60;;
59938;SDS011;45801;51.810;19.444;2023-04-01T21:05:43;18.90;;;12.00;;
59938;SDS011;45801;51.810;19.444;2023-04-01T21:11:18;16.40;;;12.30;;
59938;SDS011;45801;51.810;19.444;2023-04-01T21:19:54;18.90;;;16.00;;
59938;SDS011;45801;51.810;19.444;2023-04-01T21:31:00;12.30;;;8.00;;
59938;SDS011;45801;51.810;19.444;2023-04-01T21:33:45;12.10;;;8.40;;
59938;SDS011;45801;51.810;19.444;2023-04-01T21:42:06;13.00;;;8.70;;
59938;SDS011;45801;51.810;19.444;2023-04-01T21:47:58;14.50;;;9.10;;
59938;SDS011;45801;51.810;19.444;2023-04-01T21:53:55;14.30;;;9.60;;
59938;SDS011;45801;51.810;19.444;2023-04-01T21:56:56;13.30;;;9.00;;
59938;SDS011;45801;51.810;19.444;2023-04-01T22:05:25;12.20;;;8.50;;
59938;SDS011;45801;51.810;19.444;2023-04-01T22:08:00;11.50;;;7.40;;
59938;SDS011;45801;51.810;19.444;2023-04-01T22:11:26;11.40;;;7.70;;
59938;SDS011;45801;51.810;19.444;2023-04-01T22:14:13;11.80;;;7.60;;
59938;SDS011;45801;51.810;19.444;2023-04-01T22:19:48;10.70;;;7.50;;
59938;SDS011;45801;51.810;19.444;2023-04-01T22:22:24;11.70;;;7.50;;
59938;SDS011;45801;51.810;19.444;2023-04-01T22:25:24;11.60;;;8.10;;
59938;SDS011;45801;51.810;19.444;2023-04-01T22:30:50;10.60;;;6.70;;
59938;SDS011;45801;51.810;19.444;2023-04-01T22:42:44;9.80;;;6.40;;
59938;SDS011;45801;51.810;19.444;2023-04-01T22:47:40;9.40;;;6.00;;
59938;SDS011;45801;51.810;19.444;2023-04-01T22:56:32;10.50;;;6.30;;
59938;SDS011;45801;51.810;19.444;2023-04-01T23:01:44;9.30;;;5.80;;
59938;SDS011;45801;51.810;19.444;2023-04-01T23:04:17;8.80;;;5.50;;
59938;SDS011;45801;51.810;19.444;2023-04-01T23:06:55;9.70;;;6.30;;
59938;SDS011;45801;51.810;19.444;2023-04-01T23:09:27;11.00;;;6.30;;
59938;SDS011;45801;51.810;19.444;2023-04-01T23:14:54;9.90;;;6.20;;
59938;SDS011;45801;51.810;19.444;2023-04-01T23:17:42;10.60;;;6.90;;
59938;SDS011;45801;51.810;19.444;2023-04-01T23:20:23;9.90;;;5.80;;
59938;SDS011;45801;51.810;19.444;2023-04-01T23:25:55;9.60;;;5.60;;
59938;SDS011;45801;51.810;19.444;2023-04-01T23:31:24;9.90;;;6.00;;
59938;SDS011;45801;51.810;19.444;2023-04-01T23:33:56;10.80;;;6.30;;
59938;SDS011;45801;51.810;19.444;2023-04-01T23:36:26;10.50;;;6.50;;
59938;SDS011;45801;51.810;19.444;2023-04-01T23:39:05;11.00;;;6.40;;
59938;SDS011;45801;51.810;19.444;2023-04-01T23:41:38;11.50;;;6.00;;
59938;SDS011;45801;51.810;19.444;2023-04-01T23:44:07;9.80;;;5.40;;
59938;SDS011;45801;51.810;19.444;2023-04-01T23:46:38;9.80;;;5.90;;
59938;SDS011;45801;51.810;19.444;2023-04-01T23:49:10;11.20;;;6.70;;
59938;SDS011;45801;51.810;19.444;2023-04-01T23:51:46;10.60;;;6.80;;
59938;SDS011;45801;51.810;19.444;2023-04-01T23:54:19;11.20;;;7.30;;
59938;SDS011;45801;51.810;19.444;2023-04-01T23:57:02;10.20;;;5.80;;
59938;SDS011;45801;51.810;19.444;2023-04-01T23:59:59;10.90;;;7.30;;
